createdAt,value
2018-01-03T00:00:12.023Z,23.07
2018-01-03T00:00:40.061Z,23.07
2018-01-03T00:01:10.093Z,23.16
2018-01-03T00:01:53.215Z,23.02
2018-01-03T00:02:36.620Z,23.09
2018-01-03T00:03:07.107Z,23.13
2018-01-03T00:03:35.582Z,23.07
2018-01-03T00:05:02.739Z,23.07
2018-01-03T00:05:31.752Z,23.04
2018-01-03T00:06:59.720Z,23.16
2018-01-03T00:07:43.160Z,23.09
2018-01-03T00:08:11.119Z,23.17
2018-01-03T00:08:39.940Z,23.16
2018-01-03T00:09:08.588Z,23.13
2018-01-03T00:09:37.108Z,23.15
2018-01-03T00:10:21.988Z,23.05
2018-01-03T00:10:49.919Z,23.13
2018-01-03T00:11:34.633Z,23.07
2018-01-03T00:13:01.591Z,23.07
2018-01-03T00:13:44.661Z,23.04
2018-01-03T00:15:24.983Z,23
2018-01-03T00:15:53.161Z,23.09
2018-01-03T00:16:21.193Z,23.09
2018-01-03T00:17:18.308Z,23.01
2018-01-03T00:18:32.417Z,23.05
2018-01-03T00:19:01.292Z,23.07
2018-01-03T00:19:55.829Z,23.09
2018-01-03T00:20:39.242Z,22.98
2018-01-03T00:21:07.448Z,22.98
2018-01-03T00:22:12.014Z,22.95
2018-01-03T00:22:41.931Z,23.01
2018-01-03T00:24:07.547Z,22.95
2018-01-03T00:24:35.911Z,22.94
2018-01-03T00:25:04.532Z,22.98
2018-01-03T00:25:33.501Z,22.94
2018-01-03T00:26:01.996Z,22.97
2018-01-03T00:26:33.598Z,22.94
2018-01-03T00:27:44.970Z,22.98
2018-01-03T00:28:28.064Z,22.91
2018-01-03T00:28:57.455Z,22.92
2018-01-03T00:30:23.471Z,22.92
2018-01-03T00:30:51.636Z,22.98
2018-01-03T00:31:20.024Z,22.86
2018-01-03T00:32:31.393Z,22.97
2018-01-03T00:32:59.901Z,22.92
2018-01-03T00:33:29.484Z,22.92
2018-01-03T00:33:57.963Z,22.91
2018-01-03T00:34:27.409Z,22.92
2018-01-03T00:34:56.592Z,22.9
2018-01-03T00:35:40.801Z,22.98
2018-01-03T00:36:10.456Z,22.95
2018-01-03T00:36:39.220Z,22.92
2018-01-03T00:38:49.168Z,22.95
2018-01-03T00:39:17.818Z,22.83
2018-01-03T00:39:46.109Z,22.94
2018-01-03T00:40:15.545Z,23
2018-01-03T00:40:43.887Z,22.86
2018-01-03T00:41:11.912Z,22.83
2018-01-03T00:41:40.766Z,22.85
2018-01-03T00:42:09.035Z,22.85
2018-01-03T00:42:37.488Z,22.85
2018-01-03T00:43:05.922Z,22.86
2018-01-03T00:43:35.200Z,23.02
2018-01-03T00:44:03.183Z,22.9
2018-01-03T00:45:00.254Z,22.9
2018-01-03T00:45:59.417Z,22.9
2018-01-03T00:46:28.726Z,22.92
2018-01-03T00:47:12.108Z,22.92
2018-01-03T00:47:55.200Z,22.9
2018-01-03T00:48:39.213Z,23
2018-01-03T00:49:07.152Z,22.95
2018-01-03T00:49:35.920Z,22.88
2018-01-03T00:50:03.939Z,22.88
2018-01-03T00:50:32.827Z,22.86
2018-01-03T00:51:00.862Z,22.85
2018-01-03T00:51:29.679Z,22.85
2018-01-03T00:52:00.007Z,22.94
2018-01-03T00:52:28.782Z,22.83
2018-01-03T00:52:57.226Z,22.9
2018-01-03T00:53:26.540Z,22.9
2018-01-03T00:53:54.918Z,22.92
2018-01-03T00:54:38.479Z,22.85
2018-01-03T00:55:06.915Z,22.88
2018-01-03T00:55:35.912Z,22.88
2018-01-03T00:56:18.967Z,22.85
2018-01-03T00:56:47.566Z,22.9
2018-01-03T00:57:16.013Z,22.91
2018-01-03T00:57:44.065Z,22.88
2018-01-03T00:58:12.980Z,22.9
2018-01-03T00:58:42.468Z,22.85
2018-01-03T00:59:11.160Z,22.92
2018-01-03T00:59:42.074Z,22.88
2018-01-03T01:00:10.063Z,22.82
2018-01-03T01:01:50.658Z,22.95
2018-01-03T01:03:16.552Z,22.85
2018-01-03T01:03:45.411Z,22.82
2018-01-03T01:04:14.932Z,22.88
2018-01-03T01:04:43.406Z,22.9
2018-01-03T01:05:54.534Z,22.76
2018-01-03T01:06:24.195Z,22.92
2018-01-03T01:06:52.974Z,22.8
2018-01-03T01:07:21.004Z,22.85
2018-01-03T01:07:49.057Z,22.82
2018-01-03T01:08:18.059Z,22.73
2018-01-03T01:08:46.494Z,22.76
2018-01-03T01:09:46.408Z,22.67
2018-01-03T01:10:14.954Z,22.76
2018-01-03T01:10:43.991Z,22.68
2018-01-03T01:11:11.945Z,22.76
2018-01-03T01:11:40.972Z,22.72
2018-01-03T01:12:09.232Z,22.75
2018-01-03T01:12:37.809Z,22.62
2018-01-03T01:13:05.864Z,22.67
2018-01-03T01:13:34.422Z,22.68
2018-01-03T01:14:02.363Z,22.6
2018-01-03T01:14:31.383Z,22.58
2018-01-03T01:14:59.857Z,22.65
2018-01-03T01:15:44.032Z,22.57
2018-01-03T01:16:12.899Z,22.58
2018-01-03T01:16:40.837Z,22.6
2018-01-03T01:17:11.135Z,22.58
2018-01-03T01:17:39.503Z,22.57
2018-01-03T01:18:09.035Z,22.58
2018-01-03T01:18:37.433Z,22.58
2018-01-03T01:19:05.890Z,22.64
2018-01-03T01:19:34.761Z,22.62
2018-01-03T01:20:03.218Z,22.62
2018-01-03T01:20:31.684Z,22.58
2018-01-03T01:20:59.713Z,22.55
2018-01-03T01:21:27.741Z,22.62
2018-01-03T01:21:56.513Z,22.58
2018-01-03T01:22:24.983Z,22.61
2018-01-03T01:22:53.819Z,22.61
2018-01-03T01:23:22.255Z,22.62
2018-01-03T01:23:50.582Z,22.58
2018-01-03T01:24:19.099Z,22.57
2018-01-03T01:24:48.176Z,22.51
2018-01-03T01:25:17.129Z,22.51
2018-01-03T01:25:45.817Z,22.51
2018-01-03T01:26:14.911Z,22.49
2018-01-03T01:26:42.921Z,22.54
2018-01-03T01:27:10.980Z,22.52
2018-01-03T01:27:40.004Z,22.52
2018-01-03T01:28:08.052Z,22.49
2018-01-03T01:29:20.517Z,22.55
2018-01-03T01:29:48.947Z,22.55
2018-01-03T01:30:17.819Z,22.54
2018-01-03T01:30:46.302Z,22.47
2018-01-03T01:31:15.134Z,22.49
2018-01-03T01:31:43.187Z,22.47
2018-01-03T01:32:11.641Z,22.45
2018-01-03T01:32:41.293Z,22.47
2018-01-03T01:33:10.829Z,22.45
2018-01-03T01:33:39.195Z,22.4
2018-01-03T01:34:07.894Z,22.4
2018-01-03T01:34:35.936Z,22.37
2018-01-03T01:35:04.402Z,22.42
2018-01-03T01:35:46.965Z,22.43
2018-01-03T01:36:15.787Z,22.42
2018-01-03T01:36:44.226Z,22.4
2018-01-03T01:38:11.415Z,22.28
2018-01-03T01:38:39.862Z,22.39
2018-01-03T01:39:08.191Z,22.28
2018-01-03T01:39:36.740Z,22.35
2018-01-03T01:40:20.489Z,22.35
2018-01-03T01:40:49.801Z,22.28
2018-01-03T01:41:18.275Z,22.28
2018-01-03T01:42:31.074Z,22.28
2018-01-03T01:42:59.442Z,22.36
2018-01-03T01:43:27.877Z,22.3
2018-01-03T01:43:56.111Z,22.35
2018-01-03T01:44:24.548Z,22.33
2018-01-03T01:44:53.628Z,22.28
2018-01-03T01:45:22.074Z,22.3
2018-01-03T01:45:50.839Z,22.25
2018-01-03T01:46:18.844Z,22.35
2018-01-03T01:46:47.834Z,22.36
2018-01-03T01:47:17.090Z,22.28
2018-01-03T01:47:46.083Z,22.28
2018-01-03T01:48:14.026Z,22.28
2018-01-03T01:48:43.033Z,22.22
2018-01-03T01:49:12.690Z,22.31
2018-01-03T01:49:41.145Z,22.27
2018-01-03T01:50:10.003Z,22.28
2018-01-03T01:50:38.043Z,22.3
2018-01-03T01:51:08.370Z,22.27
2018-01-03T01:51:57.512Z,22.25
2018-01-03T01:52:25.862Z,22.3
2018-01-03T01:53:08.570Z,22.24
2018-01-03T01:53:37.037Z,22.25
2018-01-03T01:54:19.496Z,22.27
2018-01-03T01:54:49.145Z,22.27
2018-01-03T01:55:17.592Z,22.28
2018-01-03T01:55:46.031Z,22.3
2018-01-03T01:56:14.565Z,22.33
2018-01-03T01:56:42.775Z,22.27
2018-01-03T01:57:11.243Z,22.3
2018-01-03T01:58:22.534Z,22.31
2018-01-03T01:58:50.556Z,22.31
2018-01-03T01:59:34.341Z,22.37
2018-01-03T02:00:03.300Z,22.3
2018-01-03T02:00:46.700Z,22.33
2018-01-03T02:01:15.368Z,22.35
2018-01-03T02:01:44.163Z,22.31
2018-01-03T02:02:12.463Z,22.27
2018-01-03T02:02:40.912Z,22.35
2018-01-03T02:03:09.356Z,22.35
2018-01-03T02:03:37.408Z,22.3
2018-01-03T02:04:06.502Z,22.31
2018-01-03T02:04:35.364Z,22.37
2018-01-03T02:05:05.013Z,22.37
2018-01-03T02:05:33.043Z,22.3
2018-01-03T02:06:01.313Z,22.35
2018-01-03T02:06:29.753Z,22.37
2018-01-03T02:06:58.968Z,22.35
2018-01-03T02:08:09.948Z,22.31
2018-01-03T02:08:38.336Z,22.27
2018-01-03T02:09:06.839Z,22.31
2018-01-03T02:09:35.657Z,22.31
2018-01-03T02:10:04.080Z,22.3
2018-01-03T02:10:32.442Z,22.36
2018-01-03T02:11:01.078Z,22.36
2018-01-03T02:11:30.081Z,22.36
2018-01-03T02:11:59.310Z,22.31
2018-01-03T02:12:27.671Z,22.31
2018-01-03T02:12:56.433Z,22.36
2018-01-03T02:13:24.485Z,22.27
2018-01-03T02:13:52.495Z,22.33
2018-01-03T02:14:22.011Z,22.31
2018-01-03T02:14:50.810Z,22.31
2018-01-03T02:15:18.838Z,22.31
2018-01-03T02:15:46.894Z,22.36
2018-01-03T02:17:12.629Z,22.28
2018-01-03T02:17:43.089Z,22.3
2018-01-03T02:18:11.116Z,22.27
2018-01-03T02:18:39.898Z,22.24
2018-01-03T02:19:09.789Z,22.28
2018-01-03T02:19:38.369Z,22.3
2018-01-03T02:20:06.418Z,22.27
2018-01-03T02:20:36.848Z,22.25
2018-01-03T02:21:05.598Z,22.27
2018-01-03T02:21:34.458Z,22.27
2018-01-03T02:22:17.220Z,22.18
2018-01-03T02:22:45.217Z,22.24
2018-01-03T02:23:13.471Z,22.27
2018-01-03T02:23:41.933Z,22.2
2018-01-03T02:24:09.979Z,22.2
2018-01-03T02:24:38.443Z,22.18
2018-01-03T02:25:06.499Z,22.18
2018-01-03T02:25:34.931Z,22.22
2018-01-03T02:26:04.048Z,22.22
2018-01-03T02:26:32.909Z,22.17
2018-01-03T02:27:16.308Z,22.2
2018-01-03T02:27:45.422Z,22.15
2018-01-03T02:28:14.344Z,22.2
2018-01-03T02:28:42.693Z,22.12
2018-01-03T02:29:12.924Z,22.14
2018-01-03T02:29:40.841Z,22.17
2018-01-03T02:30:08.865Z,22.17
2018-01-03T02:30:37.315Z,22.2
2018-01-03T02:31:05.767Z,22.17
2018-01-03T02:31:34.657Z,22.2
2018-01-03T02:32:03.024Z,22.06
2018-01-03T02:33:28.676Z,22.14
2018-01-03T02:33:57.521Z,22.1
2018-01-03T02:34:26.396Z,22.18
2018-01-03T02:34:55.266Z,22.05
2018-01-03T02:35:43.966Z,22.17
2018-01-03T02:36:12.937Z,22.18
2018-01-03T02:37:53.315Z,22.09
2018-01-03T02:38:21.345Z,22.12
2018-01-03T02:38:50.750Z,22.06
2018-01-03T02:39:19.613Z,22.02
2018-01-03T02:39:48.847Z,22.1
2018-01-03T02:40:17.635Z,22.07
2018-01-03T02:40:45.670Z,22.02
2018-01-03T02:41:14.268Z,22.02
2018-01-03T02:41:42.299Z,22
2018-01-03T02:42:11.092Z,22
2018-01-03T02:42:39.815Z,22.02
2018-01-03T02:43:08.700Z,21.94
2018-01-03T02:43:38.028Z,21.98
2018-01-03T02:44:06.381Z,21.94
2018-01-03T02:44:35.713Z,21.94
2018-01-03T02:45:18.773Z,22
2018-01-03T02:45:46.723Z,21.92
2018-01-03T02:46:15.174Z,21.98
2018-01-03T02:46:43.726Z,21.94
2018-01-03T02:47:55.496Z,21.94
2018-01-03T02:48:23.956Z,21.98
2018-01-03T02:48:52.382Z,21.92
2018-01-03T02:49:20.921Z,21.86
2018-01-03T02:49:49.281Z,21.82
2018-01-03T02:50:17.291Z,21.86
2018-01-03T02:51:29.046Z,21.8
2018-01-03T02:51:56.965Z,21.77
2018-01-03T02:52:24.993Z,21.79
2018-01-03T02:53:23.780Z,21.83
2018-01-03T02:53:52.500Z,21.86
2018-01-03T02:54:20.791Z,21.8
2018-01-03T02:54:49.648Z,21.83
2018-01-03T02:55:32.615Z,21.79
2018-01-03T02:56:00.656Z,21.84
2018-01-03T02:56:28.841Z,21.79
2018-01-03T02:56:57.299Z,21.86
2018-01-03T02:57:25.332Z,21.86
2018-01-03T02:57:53.787Z,21.86
2018-01-03T02:58:21.826Z,21.79
2018-01-03T02:58:49.837Z,21.8
2018-01-03T02:59:34.173Z,21.84
2018-01-03T03:00:02.657Z,21.88
2018-01-03T03:00:31.115Z,21.75
2018-01-03T03:00:59.193Z,21.92
2018-01-03T03:01:27.170Z,21.84
2018-01-03T03:01:55.642Z,21.96
2018-01-03T03:02:24.423Z,21.92
2018-01-03T03:02:52.873Z,21.91
2018-01-03T03:03:21.229Z,21.96
2018-01-03T03:03:49.699Z,21.94
2018-01-03T03:04:17.725Z,21.84
2018-01-03T03:04:46.186Z,21.88
2018-01-03T03:05:14.626Z,21.96
2018-01-03T03:05:43.604Z,21.84
2018-01-03T03:06:12.045Z,21.88
2018-01-03T03:06:41.006Z,21.88
2018-01-03T03:07:09.802Z,21.9
2018-01-03T03:07:37.819Z,21.83
2018-01-03T03:08:05.842Z,21.86
2018-01-03T03:08:33.892Z,21.94
2018-01-03T03:09:01.889Z,21.83
2018-01-03T03:09:29.917Z,21.9
2018-01-03T03:09:59.130Z,21.84
2018-01-03T03:10:27.793Z,21.84
2018-01-03T03:11:10.764Z,21.96
2018-01-03T03:11:39.756Z,21.99
2018-01-03T03:12:09.158Z,21.92
2018-01-03T03:12:37.635Z,21.92
2018-01-03T03:13:05.988Z,21.98
2018-01-03T03:13:35.267Z,21.92
2018-01-03T03:14:47.439Z,21.91
2018-01-03T03:15:16.533Z,21.92
2018-01-03T03:15:45.342Z,21.88
2018-01-03T03:16:14.248Z,21.96
2018-01-03T03:16:42.275Z,21.96
2018-01-03T03:17:10.709Z,21.92
2018-01-03T03:17:39.153Z,21.88
2018-01-03T03:18:07.314Z,21.88
2018-01-03T03:19:44.739Z,21.99
2018-01-03T03:20:12.670Z,21.92
2018-01-03T03:20:40.702Z,21.98
2018-01-03T03:21:08.723Z,21.92
2018-01-03T03:21:37.182Z,22.02
2018-01-03T03:22:06.691Z,21.98
2018-01-03T03:22:35.689Z,22.05
2018-01-03T03:23:04.755Z,21.98
2018-01-03T03:23:33.113Z,22.06
2018-01-03T03:24:02.089Z,22
2018-01-03T03:24:30.013Z,22.02
2018-01-03T03:24:59.828Z,21.98
2018-01-03T03:25:28.689Z,22.02
2018-01-03T03:25:57.120Z,22
2018-01-03T03:26:25.174Z,22
2018-01-03T03:26:53.753Z,21.99
2018-01-03T03:27:22.208Z,21.96
2018-01-03T03:27:50.231Z,21.99
2018-01-03T03:28:19.529Z,22.03
2018-01-03T03:28:47.981Z,22
2018-01-03T03:29:16.613Z,21.98
2018-01-03T03:29:45.078Z,22.03
2018-01-03T03:30:13.346Z,22
2018-01-03T03:30:57.087Z,21.96
2018-01-03T03:31:25.470Z,21.92
2018-01-03T03:32:08.003Z,22.05
2018-01-03T03:32:51.748Z,22.02
2018-01-03T03:33:20.203Z,22.02
2018-01-03T03:33:48.678Z,22
2018-01-03T03:34:17.124Z,22.03
2018-01-03T03:34:45.579Z,22.02
2018-01-03T03:35:14.107Z,22.03
2018-01-03T03:35:42.054Z,22
2018-01-03T03:36:26.147Z,22
2018-01-03T03:36:54.179Z,21.99
2018-01-03T03:37:22.655Z,22.07
2018-01-03T03:37:50.677Z,22.05
2018-01-03T03:38:19.566Z,22.05
2018-01-03T03:38:48.377Z,22.02
2018-01-03T03:39:16.411Z,22.05
2018-01-03T03:39:44.431Z,22.05
2018-01-03T03:40:12.874Z,22.06
2018-01-03T03:40:40.906Z,22.05
2018-01-03T03:41:09.384Z,22
2018-01-03T03:41:38.500Z,22.05
2018-01-03T03:42:07.119Z,22.06
2018-01-03T03:42:35.347Z,22.09
2018-01-03T03:43:04.365Z,21.94
2018-01-03T03:43:34.378Z,22.06
2018-01-03T03:44:02.395Z,22
2018-01-03T03:44:44.953Z,22.03
2018-01-03T03:45:12.992Z,22.03
2018-01-03T03:45:41.003Z,22.02
2018-01-03T03:46:09.454Z,22.05
2018-01-03T03:46:38.416Z,22.09
2018-01-03T03:47:07.143Z,22.05
2018-01-03T03:47:35.573Z,22
2018-01-03T03:48:18.709Z,22.06
2018-01-03T03:48:46.734Z,22.05
2018-01-03T03:49:14.869Z,22.05
2018-01-03T03:49:42.896Z,22.1
2018-01-03T03:50:26.383Z,21.99
2018-01-03T03:51:09.508Z,22.02
2018-01-03T03:51:52.074Z,22
2018-01-03T03:52:20.344Z,21.92
2018-01-03T03:52:48.806Z,22
2018-01-03T03:53:17.327Z,21.92
2018-01-03T03:53:46.584Z,21.99
2018-01-03T03:54:15.950Z,21.94
2018-01-03T03:54:43.879Z,21.98
2018-01-03T03:55:13.896Z,22
2018-01-03T03:55:43.439Z,22
2018-01-03T03:56:11.704Z,21.98
2018-01-03T03:56:39.725Z,22.05
2018-01-03T03:57:08.429Z,21.98
2018-01-03T03:57:36.362Z,21.92
2018-01-03T03:58:04.813Z,21.98
2018-01-03T03:58:48.017Z,22.02
2018-01-03T03:59:16.908Z,22.07
2018-01-03T03:59:45.738Z,22.09
2018-01-03T04:00:29.170Z,22.07
2018-01-03T04:00:58.316Z,22.09
2018-01-03T04:01:41.366Z,22.17
2018-01-03T04:02:25.030Z,22.15
2018-01-03T04:02:53.840Z,22.18
2018-01-03T04:03:48.947Z,22.07
2018-01-03T04:05:00.730Z,22.07
2018-01-03T04:05:29.543Z,22.07
2018-01-03T04:05:57.568Z,22.02
2018-01-03T04:06:26.441Z,22.05
2018-01-03T04:07:23.519Z,22.02
2018-01-03T04:07:51.984Z,22.09
2018-01-03T04:08:20.651Z,22.02
2018-01-03T04:08:48.700Z,22
2018-01-03T04:09:18.808Z,22.06
2018-01-03T04:09:47.156Z,21.98
2018-01-03T04:10:16.556Z,22.03
2018-01-03T04:11:14.292Z,22.02
2018-01-03T04:11:43.264Z,22.06
2018-01-03T04:12:11.947Z,21.99
2018-01-03T04:12:39.978Z,22.05
2018-01-03T04:13:08.786Z,22.03
2018-01-03T04:13:37.220Z,22.05
2018-01-03T04:14:06.421Z,22
2018-01-03T04:14:49.535Z,22.07
2018-01-03T04:15:17.587Z,21.99
2018-01-03T04:15:46.622Z,22
2018-01-03T04:16:15.672Z,21.99
2018-01-03T04:16:45.391Z,22.02
2018-01-03T04:17:13.853Z,22
2018-01-03T04:17:42.230Z,21.99
2018-01-03T04:18:11.108Z,22
2018-01-03T04:18:39.850Z,22.03
2018-01-03T04:19:08.753Z,21.98
2018-01-03T04:19:37.573Z,22.06
2018-01-03T04:20:05.935Z,22
2018-01-03T04:20:34.333Z,21.96
2018-01-03T04:21:02.355Z,21.94
2018-01-03T04:21:31.319Z,21.99
2018-01-03T04:21:59.884Z,21.92
2018-01-03T04:22:57.382Z,21.92
2018-01-03T04:23:40.375Z,21.99
2018-01-03T04:24:09.279Z,22.05
2018-01-03T04:25:19.814Z,21.98
2018-01-03T04:25:48.693Z,22.06
2018-01-03T04:26:17.142Z,22
2018-01-03T04:26:45.690Z,21.96
2018-01-03T04:27:15.282Z,21.96
2018-01-03T04:27:43.294Z,22.06
2018-01-03T04:28:11.742Z,22.02
2018-01-03T04:28:54.282Z,22.05
2018-01-03T04:29:23.905Z,22.06
2018-01-03T04:29:52.500Z,22.05
2018-01-03T04:30:20.582Z,22.05
2018-01-03T04:30:49.025Z,22.06
2018-01-03T04:31:18.167Z,22.09
2018-01-03T04:31:47.554Z,22.05
2018-01-03T04:32:15.580Z,22.09
2018-01-03T04:32:43.607Z,22.06
2018-01-03T04:33:11.640Z,22.05
2018-01-03T04:33:54.209Z,22.1
2018-01-03T04:34:23.247Z,22.09
2018-01-03T04:34:52.023Z,22.05
2018-01-03T04:35:21.034Z,22.06
2018-01-03T04:35:49.085Z,22.14
2018-01-03T04:36:18.224Z,22.15
2018-01-03T04:36:46.270Z,22.14
2018-01-03T04:37:16.343Z,22.18
2018-01-03T04:37:45.752Z,22.2
2018-01-03T04:38:14.208Z,22.18
2018-01-03T04:38:43.021Z,22.18
2018-01-03T04:39:11.635Z,22.17
2018-01-03T04:39:40.512Z,22.14
2018-01-03T04:40:11.780Z,22.17
2018-01-03T04:40:40.816Z,22.15
2018-01-03T04:41:09.711Z,22.15
2018-01-03T04:41:38.901Z,22.15
2018-01-03T04:42:07.792Z,22.17
2018-01-03T04:42:37.173Z,22.17
2018-01-03T04:43:05.088Z,22.18
2018-01-03T04:43:33.641Z,22.17
2018-01-03T04:44:03.213Z,22.17
2018-01-03T04:44:31.664Z,22.14
2018-01-03T04:44:59.710Z,22.2
2018-01-03T04:45:27.737Z,22.18
2018-01-03T04:45:57.112Z,22.17
2018-01-03T04:46:27.172Z,22.1
2018-01-03T04:48:06.862Z,22.17
2018-01-03T04:48:35.671Z,22.22
2018-01-03T04:49:04.605Z,22.18
2018-01-03T04:49:32.731Z,22.14
2018-01-03T04:50:01.386Z,22.12
2018-01-03T04:50:29.435Z,22.12
2018-01-03T04:50:57.782Z,22.1
2018-01-03T04:51:54.874Z,22.09
2018-01-03T04:52:37.874Z,22.06
2018-01-03T04:53:05.913Z,22.12
2018-01-03T04:53:34.413Z,22.07
2018-01-03T04:54:31.489Z,22.07
2018-01-03T04:56:03.099Z,22.12
2018-01-03T04:56:46.841Z,22.1
2018-01-03T04:57:15.900Z,22.12
2018-01-03T04:57:44.442Z,22.09
2018-01-03T04:58:13.115Z,22.09
2018-01-03T04:58:56.458Z,22.12
2018-01-03T04:59:39.470Z,22.05
2018-01-03T05:00:07.538Z,22.03
2018-01-03T05:00:50.086Z,22.06
2018-01-03T05:01:19.060Z,22.02
2018-01-03T05:02:02.108Z,22.06
2018-01-03T05:02:31.095Z,22
2018-01-03T05:02:59.859Z,22.09
2018-01-03T05:03:29.076Z,22.02
2018-01-03T05:04:13.119Z,22
2018-01-03T05:04:55.996Z,22.06
2018-01-03T05:05:39.196Z,22.02
2018-01-03T05:06:36.741Z,22.06
2018-01-03T05:07:34.341Z,22.05
2018-01-03T05:08:03.266Z,21.96
2018-01-03T05:08:31.319Z,21.99
2018-01-03T05:09:00.591Z,22
2018-01-03T05:09:28.943Z,21.99
2018-01-03T05:09:57.975Z,21.94
2018-01-03T05:10:56.027Z,21.91
2018-01-03T05:11:25.400Z,21.96
2018-01-03T05:12:08.860Z,21.84
2018-01-03T05:12:36.892Z,21.92
2018-01-03T05:13:05.438Z,21.84
2018-01-03T05:13:33.481Z,21.84
2018-01-03T05:14:16.434Z,21.94
2018-01-03T05:14:45.610Z,21.88
2018-01-03T05:15:14.806Z,21.9
2018-01-03T05:15:44.119Z,21.84
2018-01-03T05:16:14.063Z,21.91
2018-01-03T05:16:42.499Z,21.94
2018-01-03T05:17:10.960Z,21.88
2018-01-03T05:18:38.369Z,21.9
2018-01-03T05:19:06.407Z,21.94
2018-01-03T05:19:35.787Z,21.98
2018-01-03T05:20:04.242Z,22.06
2018-01-03T05:20:32.693Z,21.99
2018-01-03T05:21:00.745Z,21.96
2018-01-03T05:21:29.200Z,22.03
2018-01-03T05:21:58.232Z,22.05
2018-01-03T05:22:27.909Z,22.07
2018-01-03T05:22:57.079Z,22.06
2018-01-03T05:23:25.110Z,22.05
2018-01-03T05:23:54.200Z,22.06
2018-01-03T05:24:38.119Z,22.06
2018-01-03T05:25:07.313Z,22.07
2018-01-03T05:25:35.602Z,22.1
2018-01-03T05:26:18.171Z,22.12
2018-01-03T05:27:01.510Z,22.14
2018-01-03T05:27:30.097Z,22.18
2018-01-03T05:28:13.411Z,22.18
2018-01-03T05:28:41.472Z,22.15
2018-01-03T05:30:07.050Z,22.27
2018-01-03T05:30:35.945Z,22.18
2018-01-03T05:31:18.902Z,22.22
2018-01-03T05:32:01.878Z,22.12
2018-01-03T05:32:29.824Z,22.14
2018-01-03T05:33:41.390Z,22.17
2018-01-03T05:34:09.813Z,22.15
2018-01-03T05:34:38.761Z,22.2
2018-01-03T05:35:07.526Z,22.21
2018-01-03T05:35:35.620Z,22.18
2018-01-03T05:36:05.176Z,22.15
2018-01-03T05:36:35.304Z,22.18
2018-01-03T05:37:32.327Z,22.2
2018-01-03T05:38:01.076Z,22.18
2018-01-03T05:38:30.354Z,22.17
2018-01-03T05:39:42.548Z,22.17
2018-01-03T05:40:31.218Z,22.17
2018-01-03T05:41:13.852Z,22.09
2018-01-03T05:41:56.864Z,22.09
2018-01-03T05:42:26.169Z,22.18
2018-01-03T05:43:09.973Z,22.09
2018-01-03T05:43:39.165Z,22.17
2018-01-03T05:44:07.602Z,22.12
2018-01-03T05:44:37.429Z,22.18
2018-01-03T05:45:06.763Z,22.14
2018-01-03T05:45:35.613Z,22.2
2018-01-03T05:46:04.591Z,22.18
2018-01-03T05:47:16.843Z,22.22
2018-01-03T05:48:00.707Z,22.17
2018-01-03T05:48:43.730Z,22.2
2018-01-03T05:49:12.826Z,22.18
2018-01-03T05:50:24.310Z,22.25
2018-01-03T05:50:54.104Z,22.24
2018-01-03T05:51:22.327Z,22.21
2018-01-03T05:52:05.696Z,22.21
2018-01-03T05:52:35.115Z,22.24
2018-01-03T05:53:03.208Z,22.22
2018-01-03T05:53:32.103Z,22.22
2018-01-03T05:55:11.828Z,22.24
2018-01-03T05:55:40.742Z,22.18
2018-01-03T05:56:09.501Z,22.28
2018-01-03T05:56:52.524Z,22.21
2018-01-03T05:57:21.934Z,22.24
2018-01-03T05:58:06.511Z,22.21
2018-01-03T05:58:35.169Z,22.22
2018-01-03T05:59:03.586Z,22.21
2018-01-03T05:59:32.112Z,22.21
2018-01-03T06:00:14.712Z,22.25
2018-01-03T06:00:42.935Z,22.22
2018-01-03T06:01:26.389Z,22.24
2018-01-03T06:02:09.201Z,22.2
2018-01-03T06:02:37.253Z,22.21
2018-01-03T06:03:20.519Z,22.31
2018-01-03T06:04:04.495Z,22.22
2018-01-03T06:04:33.323Z,22.24
2018-01-03T06:05:15.911Z,22.3
2018-01-03T06:05:44.941Z,22.31
2018-01-03T06:06:13.544Z,22.31
2018-01-03T06:06:56.498Z,22.31
2018-01-03T06:07:26.283Z,22.25
2018-01-03T06:07:54.995Z,22.27
2018-01-03T06:08:23.441Z,22.25
2018-01-03T06:08:51.832Z,22.36
2018-01-03T06:09:49.387Z,22.37
2018-01-03T06:10:19.203Z,22.35
2018-01-03T06:10:47.620Z,22.39
2018-01-03T06:11:15.944Z,22.24
2018-01-03T06:11:45.197Z,22.3
2018-01-03T06:12:28.130Z,22.31
2018-01-03T06:12:58.213Z,22.35
2018-01-03T06:13:27.244Z,22.31
2018-01-03T06:14:11.088Z,22.45
2018-01-03T06:14:54.593Z,22.45
2018-01-03T06:15:22.922Z,22.49
2018-01-03T06:15:51.405Z,22.4
2018-01-03T06:16:19.480Z,22.4
2018-01-03T06:16:48.447Z,22.37
2018-01-03T06:17:18.309Z,22.47
2018-01-03T06:18:02.097Z,22.43
2018-01-03T06:19:29.257Z,22.36
2018-01-03T06:19:58.536Z,22.39
2018-01-03T06:20:27.825Z,22.49
2018-01-03T06:21:54.507Z,22.49
2018-01-03T06:22:22.706Z,22.42
2018-01-03T06:23:06.668Z,22.36
2018-01-03T06:23:50.372Z,22.52
2018-01-03T06:24:19.761Z,22.43
2018-01-03T06:24:48.062Z,22.45
2018-01-03T06:25:16.794Z,22.4
2018-01-03T06:26:14.139Z,22.42
2018-01-03T06:27:25.653Z,22.45
2018-01-03T06:27:53.987Z,22.37
2018-01-03T06:28:37.364Z,22.45
2018-01-03T06:29:07.590Z,22.46
2018-01-03T06:29:36.070Z,22.45
2018-01-03T06:30:04.963Z,22.45
2018-01-03T06:30:33.758Z,22.45
2018-01-03T06:31:02.681Z,22.4
2018-01-03T06:32:14.486Z,22.39
2018-01-03T06:33:03.195Z,22.45
2018-01-03T06:33:32.270Z,22.31
2018-01-03T06:34:01.527Z,22.31
2018-01-03T06:34:31.160Z,22.28
2018-01-03T06:35:14.639Z,22.45
2018-01-03T06:35:58.488Z,22.4
2018-01-03T06:36:27.345Z,22.39
2018-01-03T06:36:55.431Z,22.37
2018-01-03T06:37:24.538Z,22.33
2018-01-03T06:37:52.844Z,22.3
2018-01-03T06:38:20.916Z,22.31
2018-01-03T06:38:49.332Z,22.33
2018-01-03T06:40:14.723Z,22.35
2018-01-03T06:40:44.138Z,22.33
2018-01-03T06:41:13.199Z,22.35
2018-01-03T06:41:42.652Z,22.36
2018-01-03T06:42:10.658Z,22.31
2018-01-03T06:42:39.163Z,22.33
2018-01-03T06:43:07.875Z,22.3
2018-01-03T06:43:36.735Z,22.36
2018-01-03T06:44:06.544Z,22.28
2018-01-03T06:45:18.345Z,22.37
2018-01-03T06:45:48.605Z,22.3
2018-01-03T06:46:18.985Z,22.35
2018-01-03T06:46:47.751Z,22.33
2018-01-03T06:47:16.967Z,22.35
2018-01-03T06:47:46.682Z,22.35
2018-01-03T06:48:29.279Z,22.35
2018-01-03T06:48:58.063Z,22.31
2018-01-03T06:49:26.917Z,22.3
2018-01-03T06:50:10.724Z,22.35
2018-01-03T06:50:39.478Z,22.3
2018-01-03T06:51:08.501Z,22.33
2018-01-03T06:51:36.985Z,22.28
2018-01-03T06:52:05.494Z,22.35
2018-01-03T06:52:34.887Z,22.27
2018-01-03T06:53:17.892Z,22.28
2018-01-03T06:53:46.225Z,22.31
2018-01-03T06:54:15.495Z,22.25
2018-01-03T06:55:12.643Z,22.17
2018-01-03T06:55:42.819Z,22.31
2018-01-03T06:56:13.863Z,22.27
2018-01-03T06:56:57.483Z,22.27
2018-01-03T06:57:26.755Z,22.28
2018-01-03T06:57:54.827Z,22.25
2018-01-03T06:58:37.884Z,22.28
2018-01-03T06:59:06.462Z,22.27
2018-01-03T06:59:35.337Z,22.28
2018-01-03T07:00:19.381Z,22.24
2018-01-03T07:00:47.362Z,22.21
2018-01-03T07:01:16.143Z,22.17
2018-01-03T07:01:44.154Z,22.24
2018-01-03T07:02:29.115Z,22.24
2018-01-03T07:02:58.761Z,22.22
2018-01-03T07:03:55.883Z,22.21
2018-01-03T07:04:24.987Z,22.17
2018-01-03T07:04:53.060Z,22.14
2018-01-03T07:05:22.420Z,22.15
2018-01-03T07:05:51.184Z,22.18
2018-01-03T07:06:19.231Z,22.24
2018-01-03T07:06:48.179Z,22.15
2018-01-03T07:07:17.331Z,22.12
2018-01-03T07:08:43.484Z,22.12
2018-01-03T07:09:12.987Z,22.14
2018-01-03T07:09:42.306Z,22.15
2018-01-03T07:10:11.915Z,22.15
2018-01-03T07:10:40.319Z,22.21
2018-01-03T07:11:24.274Z,22.15
2018-01-03T07:11:52.598Z,22.12
2018-01-03T07:13:19.863Z,22.2
2018-01-03T07:13:48.947Z,22.2
2018-01-03T07:14:17.907Z,22.2
2018-01-03T07:15:00.934Z,22.2
2018-01-03T07:15:29.771Z,22.22
2018-01-03T07:15:57.835Z,22.27
2018-01-03T07:16:25.924Z,22.22
2018-01-03T07:16:55.965Z,22.3
2018-01-03T07:18:23.292Z,22.22
2018-01-03T07:18:51.804Z,22.15
2018-01-03T07:19:21.417Z,22.27
2018-01-03T07:20:19.389Z,22.28
2018-01-03T07:20:47.723Z,22.24
2018-01-03T07:22:43.173Z,22.33
2018-01-03T07:23:14.214Z,22.21
2018-01-03T07:23:57.741Z,22.24
2018-01-03T07:24:28.453Z,22.28
2018-01-03T07:24:57.121Z,22.28
2018-01-03T07:25:25.553Z,22.21
2018-01-03T07:25:54.760Z,22.28
2018-01-03T07:26:38.034Z,22.18
2018-01-03T07:27:51.518Z,22.21
2018-01-03T07:28:20.153Z,22.28
2018-01-03T07:28:48.372Z,22.25
2018-01-03T07:29:32.261Z,22.22
2018-01-03T07:30:00.996Z,22.25
2018-01-03T07:30:43.596Z,22.24
2018-01-03T07:31:12.294Z,22.3